sensor_id;sensor_type;location;lat;lon;timestamp;P1;durP1;ratioP1;P2;durP2;ratioP2
31594;SDS011;18200;48.726;8.892;2023-04-08T00:03:52;31.08;;;17.50;;
31594;SDS011;18200;48.726;8.892;2023-04-08T00:07:52;27.88;;;15.98;;
31594;SDS011;18200;48.726;8.892;2023-04-08T00:11:53;31.75;;;17.63;;
31594;SDS011;18200;48.726;8.892;2023-04-08T00:15:53;30.77;;;17.23;;
31594;SDS011;18200;48.726;8.892;2023-04-08T00:19:53;26.95;;;16.05;;
31594;SDS011;18200;48.726;8.892;2023-04-08T00:23:55;26.40;;;16.15;;
31594;SDS011;18200;48.726;8.892;2023-04-08T00:27:55;25.30;;;14.73;;
31594;SDS011;18200;48.726;8.892;2023-04-08T00:31:56;26.13;;;15.32;;
31594;SDS011;18200;48.726;8.892;2023-04-08T00:35:56;27.10;;;15.73;;
31594;SDS011;18200;48.726;8.892;2023-04-08T00:39:57;26.35;;;15.75;;
31594;SDS011;18200;48.726;8.892;2023-04-08T00:43:57;24.90;;;14.90;;
31594;SDS011;18200;48.726;8.892;2023-04-08T00:47:57;23.70;;;14.35;;
31594;SDS011;18200;48.726;8.892;2023-04-08T00:51:58;24.88;;;14.70;;
31594;SDS011;18200;48.726;8.892;2023-04-08T00:55:59;24.33;;;15.15;;
31594;SDS011;18200;48.726;8.892;2023-04-08T01:00:00;24.85;;;15.40;;
31594;SDS011;18200;48.726;8.892;2023-04-08T01:04:06;24.90;;;15.27;;
31594;SDS011;18200;48.726;8.892;2023-04-08T01:08:12;28.42;;;16.73;;
31594;SDS011;18200;48.726;8.892;2023-04-08T01:12:17;25.67;;;15.40;;
31594;SDS011;18200;48.726;8.892;2023-04-08T01:16:20;27.73;;;16.92;;
31594;SDS011;18200;48.726;8.892;2023-04-08T01:20:24;30.63;;;17.17;;
31594;SDS011;18200;48.726;8.892;2023-04-08T01:24:27;28.92;;;16.88;;
31594;SDS011;18200;48.726;8.892;2023-04-08T01:32:33;30.05;;;18.33;;
31594;SDS011;18200;48.726;8.892;2023-04-08T01:36:34;33.60;;;19.08;;
31594;SDS011;18200;48.726;8.892;2023-04-08T01:40:37;34.40;;;21.20;;
31594;SDS011;18200;48.726;8.892;2023-04-08T01:44:39;36.15;;;21.05;;
31594;SDS011;18200;48.726;8.892;2023-04-08T01:48:40;39.30;;;21.63;;
31594;SDS011;18200;48.726;8.892;2023-04-08T01:52:44;39.75;;;21.20;;
31594;SDS011;18200;48.726;8.892;2023-04-08T01:56:47;41.95;;;21.42;;
31594;SDS011;18200;48.726;8.892;2023-04-08T02:00:51;41.22;;;21.35;;
31594;SDS011;18200;48.726;8.892;2023-04-08T02:04:53;41.00;;;20.77;;
31594;SDS011;18200;48.726;8.892;2023-04-08T02:08:54;38.63;;;20.45;;
31594;SDS011;18200;48.726;8.892;2023-04-08T02:12:55;40.58;;;20.85;;
31594;SDS011;18200;48.726;8.892;2023-04-08T02:17:00;40.78;;;21.58;;
31594;SDS011;18200;48.726;8.892;2023-04-08T02:21:12;40.45;;;22.08;;
31594;SDS011;18200;48.726;8.892;2023-04-08T02:25:15;38.35;;;20.90;;
31594;SDS011;18200;48.726;8.892;2023-04-08T02:29:18;41.90;;;20.95;;
31594;SDS011;18200;48.726;8.892;2023-04-08T02:33:22;41.58;;;20.73;;
31594;SDS011;18200;48.726;8.892;2023-04-08T02:37:26;42.33;;;20.15;;
31594;SDS011;18200;48.726;8.892;2023-04-08T02:41:28;37.72;;;20.60;;
31594;SDS011;18200;48.726;8.892;2023-04-08T02:45:29;40.25;;;20.98;;
31594;SDS011;18200;48.726;8.892;2023-04-08T02:49:31;42.95;;;24.83;;
31594;SDS011;18200;48.726;8.892;2023-04-08T02:53:31;35.20;;;19.70;;
31594;SDS011;18200;48.726;8.892;2023-04-08T02:57:32;35.78;;;19.75;;
31594;SDS011;18200;48.726;8.892;2023-04-08T03:01:32;35.28;;;19.00;;
31594;SDS011;18200;48.726;8.892;2023-04-08T03:05:32;29.52;;;17.17;;
31594;SDS011;18200;48.726;8.892;2023-04-08T03:09:34;30.73;;;17.83;;
31594;SDS011;18200;48.726;8.892;2023-04-08T03:13:35;32.40;;;17.63;;
31594;SDS011;18200;48.726;8.892;2023-04-08T03:17:35;28.85;;;16.23;;
31594;SDS011;18200;48.726;8.892;2023-04-08T03:21:36;30.85;;;17.02;;
31594;SDS011;18200;48.726;8.892;2023-04-08T03:25:36;29.90;;;15.50;;
31594;SDS011;18200;48.726;8.892;2023-04-08T03:29:36;28.40;;;15.38;;
31594;SDS011;18200;48.726;8.892;2023-04-08T03:33:37;27.08;;;15.65;;
31594;SDS011;18200;48.726;8.892;2023-04-08T03:37:37;26.17;;;14.82;;
31594;SDS011;18200;48.726;8.892;2023-04-08T03:41:38;26.52;;;15.13;;
31594;SDS011;18200;48.726;8.892;2023-04-08T03:45:38;29.30;;;16.40;;
31594;SDS011;18200;48.726;8.892;2023-04-08T03:49:38;29.98;;;16.17;;
31594;SDS011;18200;48.726;8.892;2023-04-08T03:53:39;42.10;;;21.90;;
31594;SDS011;18200;48.726;8.892;2023-04-08T03:57:39;25.33;;;15.23;;
31594;SDS011;18200;48.726;8.892;2023-04-08T04:01:40;25.83;;;15.98;;
31594;SDS011;18200;48.726;8.892;2023-04-08T04:05:40;27.40;;;15.25;;
31594;SDS011;18200;48.726;8.892;2023-04-08T04:09:40;30.55;;;16.67;;
31594;SDS011;18200;48.726;8.892;2023-04-08T04:13:41;26.25;;;14.68;;
31594;SDS011;18200;48.726;8.892;2023-04-08T04:17:41;28.88;;;17.52;;
31594;SDS011;18200;48.726;8.892;2023-04-08T04:21:42;26.67;;;14.80;;
31594;SDS011;18200;48.726;8.892;2023-04-08T04:25:42;25.95;;;14.75;;
31594;SDS011;18200;48.726;8.892;2023-04-08T04:29:43;27.15;;;14.52;;
31594;SDS011;18200;48.726;8.892;2023-04-08T04:33:43;27.92;;;15.82;;
31594;SDS011;18200;48.726;8.892;2023-04-08T04:37:44;31.60;;;17.50;;
31594;SDS011;18200;48.726;8.892;2023-04-08T04:41:44;29.00;;;15.38;;
31594;SDS011;18200;48.726;8.892;2023-04-08T04:45:46;27.42;;;15.40;;
31594;SDS011;18200;48.726;8.892;2023-04-08T04:49:46;30.00;;;17.52;;
31594;SDS011;18200;48.726;8.892;2023-04-08T04:53:47;25.90;;;15.98;;
31594;SDS011;18200;48.726;8.892;2023-04-08T04:57:48;26.75;;;15.68;;
31594;SDS011;18200;48.726;8.892;2023-04-08T05:01:49;27.40;;;15.38;;
31594;SDS011;18200;48.726;8.892;2023-04-08T05:05:53;24.08;;;14.43;;
31594;SDS011;18200;48.726;8.892;2023-04-08T05:09:53;43.53;;;23.10;;
31594;SDS011;18200;48.726;8.892;2023-04-08T05:13:54;31.30;;;17.40;;
31594;SDS011;18200;48.726;8.892;2023-04-08T05:17:54;33.75;;;18.73;;
31594;SDS011;18200;48.726;8.892;2023-04-08T05:21:55;33.17;;;19.08;;
31594;SDS011;18200;48.726;8.892;2023-04-08T05:25:55;29.52;;;17.55;;
31594;SDS011;18200;48.726;8.892;2023-04-08T05:29:56;29.67;;;16.77;;
31594;SDS011;18200;48.726;8.892;2023-04-08T05:33:56;26.10;;;15.25;;
31594;SDS011;18200;48.726;8.892;2023-04-08T05:37:57;29.58;;;16.90;;
31594;SDS011;18200;48.726;8.892;2023-04-08T05:41:57;30.50;;;18.13;;
31594;SDS011;18200;48.726;8.892;2023-04-08T05:45:57;29.58;;;17.20;;
31594;SDS011;18200;48.726;8.892;2023-04-08T05:49:58;39.80;;;22.83;;
31594;SDS011;18200;48.726;8.892;2023-04-08T05:53:58;42.78;;;24.15;;
31594;SDS011;18200;48.726;8.892;2023-04-08T05:57:58;27.70;;;17.52;;
31594;SDS011;18200;48.726;8.892;2023-04-08T06:01:59;29.50;;;17.80;;
31594;SDS011;18200;48.726;8.892;2023-04-08T06:05:59;27.08;;;16.05;;
31594;SDS011;18200;48.726;8.892;2023-04-08T06:10:00;25.05;;;15.70;;
31594;SDS011;18200;48.726;8.892;2023-04-08T06:14:01;30.02;;;18.10;;
31594;SDS011;18200;48.726;8.892;2023-04-08T06:18:01;32.85;;;19.88;;
31594;SDS011;18200;48.726;8.892;2023-04-08T06:22:02;27.60;;;17.23;;
31594;SDS011;18200;48.726;8.892;2023-04-08T06:26:02;29.30;;;16.63;;
31594;SDS011;18200;48.726;8.892;2023-04-08T06:30:04;33.35;;;18.67;;
31594;SDS011;18200;48.726;8.892;2023-04-08T06:34:04;32.05;;;19.17;;
31594;SDS011;18200;48.726;8.892;2023-04-08T06:38:05;30.67;;;17.52;;
31594;SDS011;18200;48.726;8.892;2023-04-08T06:42:05;25.92;;;14.82;;
31594;SDS011;18200;48.726;8.892;2023-04-08T06:46:27;26.60;;;15.85;;
31594;SDS011;18200;48.726;8.892;2023-04-08T06:50:27;23.15;;;12.40;;
31594;SDS011;18200;48.726;8.892;2023-04-08T06:54:28;21.35;;;11.68;;
31594;SDS011;18200;48.726;8.892;2023-04-08T06:58:28;21.98;;;12.38;;
31594;SDS011;18200;48.726;8.892;2023-04-08T07:02:29;20.25;;;13.02;;
31594;SDS011;18200;48.726;8.892;2023-04-08T07:06:29;24.13;;;14.25;;
31594;SDS011;18200;48.726;8.892;2023-04-08T07:10:29;27.05;;;14.75;;
31594;SDS011;18200;48.726;8.892;2023-04-08T07:14:30;26.17;;;14.15;;
31594;SDS011;18200;48.726;8.892;2023-04-08T07:18:30;27.67;;;15.15;;
31594;SDS011;18200;48.726;8.892;2023-04-08T07:22:31;26.73;;;14.70;;
31594;SDS011;18200;48.726;8.892;2023-04-08T07:26:32;29.00;;;15.65;;
31594;SDS011;18200;48.726;8.892;2023-04-08T07:30:32;35.15;;;19.50;;
31594;SDS011;18200;48.726;8.892;2023-04-08T07:34:36;28.77;;;15.90;;
31594;SDS011;18200;48.726;8.892;2023-04-08T07:38:37;21.65;;;12.25;;
31594;SDS011;18200;48.726;8.892;2023-04-08T07:42:37;18.75;;;11.57;;
31594;SDS011;18200;48.726;8.892;2023-04-08T07:46:38;20.25;;;10.65;;
31594;SDS011;18200;48.726;8.892;2023-04-08T07:50:38;18.63;;;11.40;;
31594;SDS011;18200;48.726;8.892;2023-04-08T07:54:39;17.83;;;10.77;;
31594;SDS011;18200;48.726;8.892;2023-04-08T07:58:39;18.35;;;9.90;;
31594;SDS011;18200;48.726;8.892;2023-04-08T08:02:40;17.00;;;10.60;;
31594;SDS011;18200;48.726;8.892;2023-04-08T08:06:40;18.83;;;11.48;;
31594;SDS011;18200;48.726;8.892;2023-04-08T08:10:41;18.35;;;11.35;;
31594;SDS011;18200;48.726;8.892;2023-04-08T08:14:41;19.05;;;12.10;;
31594;SDS011;18200;48.726;8.892;2023-04-08T08:18:41;17.20;;;11.50;;
31594;SDS011;18200;48.726;8.892;2023-04-08T08:22:42;17.10;;;10.65;;
31594;SDS011;18200;48.726;8.892;2023-04-08T08:26:44;21.40;;;13.20;;
31594;SDS011;18200;48.726;8.892;2023-04-08T08:30:46;19.75;;;12.43;;
31594;SDS011;18200;48.726;8.892;2023-04-08T08:34:48;18.90;;;11.88;;
31594;SDS011;18200;48.726;8.892;2023-04-08T08:38:48;19.92;;;11.98;;
31594;SDS011;18200;48.726;8.892;2023-04-08T08:42:50;21.40;;;13.25;;
31594;SDS011;18200;48.726;8.892;2023-04-08T08:46:51;22.42;;;14.13;;
31594;SDS011;18200;48.726;8.892;2023-04-08T08:50:52;23.75;;;14.05;;
31594;SDS011;18200;48.726;8.892;2023-04-08T08:54:56;22.73;;;13.77;;
31594;SDS011;18200;48.726;8.892;2023-04-08T08:58:58;24.58;;;14.77;;
31594;SDS011;18200;48.726;8.892;2023-04-08T09:03:12;23.48;;;14.63;;
31594;SDS011;18200;48.726;8.892;2023-04-08T09:07:14;28.25;;;15.60;;
31594;SDS011;18200;48.726;8.892;2023-04-08T09:11:18;26.60;;;15.65;;
31594;SDS011;18200;48.726;8.892;2023-04-08T09:15:20;25.50;;;15.52;;
31594;SDS011;18200;48.726;8.892;2023-04-08T09:19:21;26.35;;;15.77;;
31594;SDS011;18200;48.726;8.892;2023-04-08T09:23:21;28.27;;;14.85;;
31594;SDS011;18200;48.726;8.892;2023-04-08T09:27:55;26.58;;;15.60;;
31594;SDS011;18200;48.726;8.892;2023-04-08T09:31:52;25.38;;;15.35;;
31594;SDS011;18200;48.726;8.892;2023-04-08T09:35:57;22.98;;;15.38;;
31594;SDS011;18200;48.726;8.892;2023-04-08T09:39:57;25.23;;;15.15;;
31594;SDS011;18200;48.726;8.892;2023-04-08T09:43:57;28.85;;;14.82;;
31594;SDS011;18200;48.726;8.892;2023-04-08T09:48:06;24.40;;;15.63;;
31594;SDS011;18200;48.726;8.892;2023-04-08T09:56:11;26.13;;;15.70;;
31594;SDS011;18200;48.726;8.892;2023-04-08T10:00:14;24.17;;;15.15;;
31594;SDS011;18200;48.726;8.892;2023-04-08T10:04:17;21.65;;;14.40;;
31594;SDS011;18200;48.726;8.892;2023-04-08T10:08:20;22.80;;;15.00;;
31594;SDS011;18200;48.726;8.892;2023-04-08T10:12:22;20.63;;;14.50;;
31594;SDS011;18200;48.726;8.892;2023-04-08T10:16:23;24.23;;;16.02;;
31594;SDS011;18200;48.726;8.892;2023-04-08T10:24:35;24.10;;;14.85;;
31594;SDS011;18200;48.726;8.892;2023-04-08T10:28:36;25.27;;;15.00;;
31594;SDS011;18200;48.726;8.892;2023-04-08T10:32:39;22.02;;;15.10;;
31594;SDS011;18200;48.726;8.892;2023-04-08T10:36:40;22.87;;;15.40;;
31594;SDS011;18200;48.726;8.892;2023-04-08T10:40:40;25.10;;;15.90;;
31594;SDS011;18200;48.726;8.892;2023-04-08T10:44:43;22.85;;;15.48;;
31594;SDS011;18200;48.726;8.892;2023-04-08T10:48:45;25.10;;;16.17;;
31594;SDS011;18200;48.726;8.892;2023-04-08T10:52:59;22.58;;;14.85;;
31594;SDS011;18200;48.726;8.892;2023-04-08T10:57:00;22.42;;;15.63;;
31594;SDS011;18200;48.726;8.892;2023-04-08T11:01:06;24.90;;;15.38;;
31594;SDS011;18200;48.726;8.892;2023-04-08T11:05:08;24.85;;;15.73;;
31594;SDS011;18200;48.726;8.892;2023-04-08T11:09:09;22.95;;;16.20;;
31594;SDS011;18200;48.726;8.892;2023-04-08T11:13:10;24.77;;;15.98;;
31594;SDS011;18200;48.726;8.892;2023-04-08T11:17:13;21.75;;;14.82;;
31594;SDS011;18200;48.726;8.892;2023-04-08T11:21:14;21.77;;;15.43;;
31594;SDS011;18200;48.726;8.892;2023-04-08T11:25:15;25.08;;;15.70;;
31594;SDS011;18200;48.726;8.892;2023-04-08T11:29:16;24.45;;;15.85;;
31594;SDS011;18200;48.726;8.892;2023-04-08T11:33:16;22.55;;;14.45;;
31594;SDS011;18200;48.726;8.892;2023-04-08T11:37:17;26.00;;;15.25;;
31594;SDS011;18200;48.726;8.892;2023-04-08T11:41:18;22.10;;;15.07;;
31594;SDS011;18200;48.726;8.892;2023-04-08T11:45:19;24.10;;;15.30;;
31594;SDS011;18200;48.726;8.892;2023-04-08T11:49:20;23.02;;;15.05;;
31594;SDS011;18200;48.726;8.892;2023-04-08T11:53:21;22.55;;;15.50;;
31594;SDS011;18200;48.726;8.892;2023-04-08T11:57:27;23.02;;;15.73;;
31594;SDS011;18200;48.726;8.892;2023-04-08T12:01:31;23.42;;;15.90;;
31594;SDS011;18200;48.726;8.892;2023-04-08T12:05:32;24.52;;;16.45;;
31594;SDS011;18200;48.726;8.892;2023-04-08T12:09:32;27.42;;;16.55;;
31594;SDS011;18200;48.726;8.892;2023-04-08T12:13:32;22.15;;;15.05;;
31594;SDS011;18200;48.726;8.892;2023-04-08T12:17:33;24.90;;;16.23;;
31594;SDS011;18200;48.726;8.892;2023-04-08T12:21:34;23.15;;;14.88;;
31594;SDS011;18200;48.726;8.892;2023-04-08T12:25:35;24.05;;;15.38;;
31594;SDS011;18200;48.726;8.892;2023-04-08T12:29:35;26.67;;;16.40;;
31594;SDS011;18200;48.726;8.892;2023-04-08T12:33:35;22.80;;;16.05;;
31594;SDS011;18200;48.726;8.892;2023-04-08T12:37:36;21.92;;;15.25;;
31594;SDS011;18200;48.726;8.892;2023-04-08T12:41:36;23.92;;;16.20;;
31594;SDS011;18200;48.726;8.892;2023-04-08T12:45:37;24.05;;;16.30;;
31594;SDS011;18200;48.726;8.892;2023-04-08T12:49:37;21.98;;;14.95;;
31594;SDS011;18200;48.726;8.892;2023-04-08T12:53:37;20.77;;;14.68;;
31594;SDS011;18200;48.726;8.892;2023-04-08T12:57:38;22.80;;;15.65;;
31594;SDS011;18200;48.726;8.892;2023-04-08T13:01:38;26.27;;;17.10;;
31594;SDS011;18200;48.726;8.892;2023-04-08T13:05:38;24.45;;;15.98;;
31594;SDS011;18200;48.726;8.892;2023-04-08T13:09:39;24.75;;;16.40;;
31594;SDS011;18200;48.726;8.892;2023-04-08T13:13:39;22.67;;;15.13;;
31594;SDS011;18200;48.726;8.892;2023-04-08T13:17:40;26.55;;;15.50;;
31594;SDS011;18200;48.726;8.892;2023-04-08T13:21:41;23.83;;;15.88;;
31594;SDS011;18200;48.726;8.892;2023-04-08T13:25:41;21.25;;;15.27;;
31594;SDS011;18200;48.726;8.892;2023-04-08T13:29:41;23.15;;;16.13;;
31594;SDS011;18200;48.726;8.892;2023-04-08T13:33:42;25.10;;;15.60;;
31594;SDS011;18200;48.726;8.892;2023-04-08T13:37:42;21.85;;;15.38;;
31594;SDS011;18200;48.726;8.892;2023-04-08T13:41:43;27.08;;;16.40;;
31594;SDS011;18200;48.726;8.892;2023-04-08T13:45:43;27.58;;;16.05;;
31594;SDS011;18200;48.726;8.892;2023-04-08T13:49:43;22.17;;;14.77;;
31594;SDS011;18200;48.726;8.892;2023-04-08T13:53:44;24.50;;;14.48;;
31594;SDS011;18200;48.726;8.892;2023-04-08T13:57:44;22.50;;;14.65;;
31594;SDS011;18200;48.726;8.892;2023-04-08T14:01:45;23.00;;;14.60;;
31594;SDS011;18200;48.726;8.892;2023-04-08T14:05:45;20.73;;;14.82;;
31594;SDS011;18200;48.726;8.892;2023-04-08T14:09:45;23.35;;;14.95;;
31594;SDS011;18200;48.726;8.892;2023-04-08T14:13:46;21.27;;;14.38;;
31594;SDS011;18200;48.726;8.892;2023-04-08T14:17:46;21.30;;;15.25;;
31594;SDS011;18200;48.726;8.892;2023-04-08T14:21:47;24.25;;;14.55;;
31594;SDS011;18200;48.726;8.892;2023-04-08T14:25:47;20.45;;;14.18;;
31594;SDS011;18200;48.726;8.892;2023-04-08T14:29:48;20.88;;;14.15;;
31594;SDS011;18200;48.726;8.892;2023-04-08T14:33:48;21.48;;;14.25;;
31594;SDS011;18200;48.726;8.892;2023-04-08T14:37:48;19.50;;;13.30;;
31594;SDS011;18200;48.726;8.892;2023-04-08T14:41:49;21.38;;;14.00;;
31594;SDS011;18200;48.726;8.892;2023-04-08T14:45:49;19.90;;;13.88;;
31594;SDS011;18200;48.726;8.892;2023-04-08T14:49:50;20.40;;;14.02;;
31594;SDS011;18200;48.726;8.892;2023-04-08T14:53:51;20.50;;;13.10;;
31594;SDS011;18200;48.726;8.892;2023-04-08T14:57:51;25.02;;;16.25;;
31594;SDS011;18200;48.726;8.892;2023-04-08T15:01:51;21.77;;;14.52;;
31594;SDS011;18200;48.726;8.892;2023-04-08T15:05:52;21.60;;;14.45;;
31594;SDS011;18200;48.726;8.892;2023-04-08T15:09:52;20.85;;;14.55;;
31594;SDS011;18200;48.726;8.892;2023-04-08T15:13:53;21.73;;;14.30;;
31594;SDS011;18200;48.726;8.892;2023-04-08T15:17:53;20.35;;;13.70;;
31594;SDS011;18200;48.726;8.892;2023-04-08T15:21:54;19.48;;;13.57;;
31594;SDS011;18200;48.726;8.892;2023-04-08T15:25:55;20.27;;;13.02;;
31594;SDS011;18200;48.726;8.892;2023-04-08T15:29:56;19.02;;;13.55;;
31594;SDS011;18200;48.726;8.892;2023-04-08T15:33:57;19.67;;;14.52;;
31594;SDS011;18200;48.726;8.892;2023-04-08T15:37:57;19.88;;;13.55;;
31594;SDS011;18200;48.726;8.892;2023-04-08T15:41:58;21.85;;;13.88;;
31594;SDS011;18200;48.726;8.892;2023-04-08T15:45:58;20.48;;;13.70;;
31594;SDS011;18200;48.726;8.892;2023-04-08T15:49:58;20.52;;;14.68;;
31594;SDS011;18200;48.726;8.892;2023-04-08T15:53:59;21.73;;;14.30;;
31594;SDS011;18200;48.726;8.892;2023-04-08T15:58:00;19.33;;;13.98;;
31594;SDS011;18200;48.726;8.892;2023-04-08T16:02:00;19.35;;;14.10;;
31594;SDS011;18200;48.726;8.892;2023-04-08T16:06:01;20.15;;;14.23;;
31594;SDS011;18200;48.726;8.892;2023-04-08T16:10:01;21.75;;;14.80;;
31594;SDS011;18200;48.726;8.892;2023-04-08T16:14:02;20.65;;;13.90;;
31594;SDS011;18200;48.726;8.892;2023-04-08T16:18:04;20.60;;;13.95;;
31594;SDS011;18200;48.726;8.892;2023-04-08T16:22:05;28.98;;;20.48;;
31594;SDS011;18200;48.726;8.892;2023-04-08T16:26:06;19.90;;;13.65;;
31594;SDS011;18200;48.726;8.892;2023-04-08T16:30:09;19.48;;;13.88;;
31594;SDS011;18200;48.726;8.892;2023-04-08T16:34:09;18.45;;;11.60;;
31594;SDS011;18200;48.726;8.892;2023-04-08T16:38:10;14.57;;;10.90;;
31594;SDS011;18200;48.726;8.892;2023-04-08T16:42:10;16.08;;;10.30;;
31594;SDS011;18200;48.726;8.892;2023-04-08T16:46:11;12.32;;;8.23;;
31594;SDS011;18200;48.726;8.892;2023-04-08T16:50:15;9.93;;;7.75;;
31594;SDS011;18200;48.726;8.892;2023-04-08T16:54:15;12.23;;;8.43;;
31594;SDS011;18200;48.726;8.892;2023-04-08T16:58:19;14.77;;;8.80;;
31594;SDS011;18200;48.726;8.892;2023-04-08T17:02:19;12.07;;;7.30;;
31594;SDS011;18200;48.726;8.892;2023-04-08T17:06:20;34.67;;;23.52;;
31594;SDS011;18200;48.726;8.892;2023-04-08T17:10:21;17.38;;;13.63;;
31594;SDS011;18200;48.726;8.892;2023-04-08T17:14:22;11.18;;;8.30;;
31594;SDS011;18200;48.726;8.892;2023-04-08T17:18:23;13.90;;;9.20;;
31594;SDS011;18200;48.726;8.892;2023-04-08T17:22:23;13.25;;;9.77;;
31594;SDS011;18200;48.726;8.892;2023-04-08T17:26:23;15.65;;;10.80;;
31594;SDS011;18200;48.726;8.892;2023-04-08T17:30:25;12.98;;;8.98;;
31594;SDS011;18200;48.726;8.892;2023-04-08T17:34:25;11.55;;;9.05;;
31594;SDS011;18200;48.726;8.892;2023-04-08T17:38:26;11.80;;;8.95;;
31594;SDS011;18200;48.726;8.892;2023-04-08T17:42:26;10.75;;;8.65;;
31594;SDS011;18200;48.726;8.892;2023-04-08T17:46:27;23.77;;;13.65;;
31594;SDS011;18200;48.726;8.892;2023-04-08T17:50:28;20.17;;;12.15;;
31594;SDS011;18200;48.726;8.892;2023-04-08T17:54:28;13.13;;;9.45;;
31594;SDS011;18200;48.726;8.892;2023-04-08T17:58:30;11.90;;;9.48;;
31594;SDS011;18200;48.726;8.892;2023-04-08T18:02:31;14.30;;;9.07;;
31594;SDS011;18200;48.726;8.892;2023-04-08T18:06:31;13.60;;;9.77;;
31594;SDS011;18200;48.726;8.892;2023-04-08T18:10:32;13.32;;;10.32;;
31594;SDS011;18200;48.726;8.892;2023-04-08T18:14:32;13.13;;;9.88;;
31594;SDS011;18200;48.726;8.892;2023-04-08T18:18:35;13.63;;;8.80;;
31594;SDS011;18200;48.726;8.892;2023-04-08T18:22:35;16.08;;;10.48;;
31594;SDS011;18200;48.726;8.892;2023-04-08T18:26:36;13.88;;;9.73;;
31594;SDS011;18200;48.726;8.892;2023-04-08T18:30:36;16.15;;;10.55;;
31594;SDS011;18200;48.726;8.892;2023-04-08T18:34:37;14.57;;;10.52;;
31594;SDS011;18200;48.726;8.892;2023-04-08T18:38:38;14.10;;;10.23;;
31594;SDS011;18200;48.726;8.892;2023-04-08T18:42:39;11.70;;;8.02;;
31594;SDS011;18200;48.726;8.892;2023-04-08T18:46:40;13.07;;;8.65;;
31594;SDS011;18200;48.726;8.892;2023-04-08T18:50:40;15.25;;;10.07;;
31594;SDS011;18200;48.726;8.892;2023-04-08T18:54:41;12.90;;;10.10;;
31594;SDS011;18200;48.726;8.892;2023-04-08T18:58:41;16.00;;;10.30;;
31594;SDS011;18200;48.726;8.892;2023-04-08T19:02:42;18.73;;;12.65;;
31594;SDS011;18200;48.726;8.892;2023-04-08T19:06:42;14.10;;;10.57;;
31594;SDS011;18200;48.726;8.892;2023-04-08T19:10:43;14.32;;;10.70;;
31594;SDS011;18200;48.726;8.892;2023-04-08T19:14:43;15.75;;;10.63;;
31594;SDS011;18200;48.726;8.892;2023-04-08T19:18:44;10.73;;;8.85;;
31594;SDS011;18200;48.726;8.892;2023-04-08T19:22:44;10.77;;;7.90;;
31594;SDS011;18200;48.726;8.892;2023-04-08T19:26:47;12.38;;;9.02;;
31594;SDS011;18200;48.726;8.892;2023-04-08T19:30:49;14.18;;;10.10;;
31594;SDS011;18200;48.726;8.892;2023-04-08T19:34:50;15.35;;;11.38;;
31594;SDS011;18200;48.726;8.892;2023-04-08T19:38:50;12.95;;;10.07;;
31594;SDS011;18200;48.726;8.892;2023-04-08T19:42:50;13.73;;;10.25;;
31594;SDS011;18200;48.726;8.892;2023-04-08T19:46:51;13.32;;;9.82;;
31594;SDS011;18200;48.726;8.892;2023-04-08T19:50:51;16.40;;;11.48;;
31594;SDS011;18200;48.726;8.892;2023-04-08T19:54:51;14.38;;;9.85;;
31594;SDS011;18200;48.726;8.892;2023-04-08T19:58:52;17.48;;;11.05;;
31594;SDS011;18200;48.726;8.892;2023-04-08T20:02:52;16.45;;;11.38;;
31594;SDS011;18200;48.726;8.892;2023-04-08T20:06:52;18.45;;;10.45;;
31594;SDS011;18200;48.726;8.892;2023-04-08T20:10:53;14.82;;;10.68;;
31594;SDS011;18200;48.726;8.892;2023-04-08T20:14:53;13.80;;;9.48;;
31594;SDS011;18200;48.726;8.892;2023-04-08T20:18:54;14.57;;;9.40;;
31594;SDS011;18200;48.726;8.892;2023-04-08T20:22:54;17.02;;;11.15;;
31594;SDS011;18200;48.726;8.892;2023-04-08T20:26:55;18.10;;;11.55;;
31594;SDS011;18200;48.726;8.892;2023-04-08T20:30:55;15.13;;;11.38;;
31594;SDS011;18200;48.726;8.892;2023-04-08T20:34:56;15.63;;;11.50;;
31594;SDS011;18200;48.726;8.892;2023-04-08T20:38:58;16.95;;;12.10;;
31594;SDS011;18200;48.726;8.892;2023-04-08T20:42:59;14.77;;;11.90;;
31594;SDS011;18200;48.726;8.892;2023-04-08T20:46:59;16.52;;;12.48;;
31594;SDS011;18200;48.726;8.892;2023-04-08T20:51:00;19.00;;;12.80;;
31594;SDS011;18200;48.726;8.892;2023-04-08T20:55:00;16.83;;;12.05;;
31594;SDS011;18200;48.726;8.892;2023-04-08T20:59:00;15.27;;;11.73;;
31594;SDS011;18200;48.726;8.892;2023-04-08T21:03:01;19.98;;;12.85;;
31594;SDS011;18200;48.726;8.892;2023-04-08T21:07:01;22.52;;;15.35;;
31594;SDS011;18200;48.726;8.892;2023-04-08T21:11:02;24.23;;;15.50;;
31594;SDS011;18200;48.726;8.892;2023-04-08T21:15:02;19.48;;;13.23;;
31594;SDS011;18200;48.726;8.892;2023-04-08T21:19:03;22.52;;;16.60;;
31594;SDS011;18200;48.726;8.892;2023-04-08T21:23:03;20.40;;;14.82;;
31594;SDS011;18200;48.726;8.892;2023-04-08T21:27:06;13.95;;;9.88;;
31594;SDS011;18200;48.726;8.892;2023-04-08T21:31:07;17.88;;;10.43;;
31594;SDS011;18200;48.726;8.892;2023-04-08T21:35:08;13.85;;;9.75;;
31594;SDS011;18200;48.726;8.892;2023-04-08T21:39:08;13.52;;;9.75;;
31594;SDS011;18200;48.726;8.892;2023-04-08T21:43:09;15.27;;;11.30;;
31594;SDS011;18200;48.726;8.892;2023-04-08T21:47:09;13.60;;;10.95;;
31594;SDS011;18200;48.726;8.892;2023-04-08T21:51:13;13.95;;;10.75;;
31594;SDS011;18200;48.726;8.892;2023-04-08T21:55:16;14.00;;;10.27;;
31594;SDS011;18200;48.726;8.892;2023-04-08T21:59:17;15.32;;;11.25;;
31594;SDS011;18200;48.726;8.892;2023-04-08T22:03:18;15.15;;;11.00;;
31594;SDS011;18200;48.726;8.892;2023-04-08T22:07:18;13.60;;;10.38;;
31594;SDS011;18200;48.726;8.892;2023-04-08T22:11:18;12.80;;;9.43;;
31594;SDS011;18200;48.726;8.892;2023-04-08T22:15:19;12.88;;;9.52;;
31594;SDS011;18200;48.726;8.892;2023-04-08T22:19:19;13.77;;;9.50;;
31594;SDS011;18200;48.726;8.892;2023-04-08T22:23:20;13.00;;;9.80;;
31594;SDS011;18200;48.726;8.892;2023-04-08T22:27:20;15.60;;;11.15;;
31594;SDS011;18200;48.726;8.892;2023-04-08T22:31:20;13.80;;;9.38;;
31594;SDS011;18200;48.726;8.892;2023-04-08T22:35:21;12.63;;;9.15;;
31594;SDS011;18200;48.726;8.892;2023-04-08T22:39:21;13.38;;;10.20;;
31594;SDS011;18200;48.726;8.892;2023-04-08T22:43:22;23.40;;;15.48;;
31594;SDS011;18200;48.726;8.892;2023-04-08T22:47:22;23.00;;;14.95;;
31594;SDS011;18200;48.726;8.892;2023-04-08T22:51:23;24.00;;;14.70;;
31594;SDS011;18200;48.726;8.892;2023-04-08T22:55:23;20.27;;;14.40;;
31594;SDS011;18200;48.726;8.892;2023-04-08T22:59:23;27.75;;;16.25;;
31594;SDS011;18200;48.726;8.892;2023-04-08T23:03:24;22.33;;;14.93;;
31594;SDS011;18200;48.726;8.892;2023-04-08T23:07:24;19.95;;;13.90;;
31594;SDS011;18200;48.726;8.892;2023-04-08T23:11:25;21.52;;;14.88;;
31594;SDS011;18200;48.726;8.892;2023-04-08T23:15:26;20.15;;;13.10;;
31594;SDS011;18200;48.726;8.892;2023-04-08T23:19:26;20.30;;;14.05;;
31594;SDS011;18200;48.726;8.892;2023-04-08T23:23:27;27.30;;;16.80;;
31594;SDS011;18200;48.726;8.892;2023-04-08T23:27:27;25.38;;;15.65;;
31594;SDS011;18200;48.726;8.892;2023-04-08T23:31:27;22.98;;;14.20;;
31594;SDS011;18200;48.726;8.892;2023-04-08T23:35:28;19.33;;;13.63;;
31594;SDS011;18200;48.726;8.892;2023-04-08T23:39:29;19.83;;;13.90;;
31594;SDS011;18200;48.726;8.892;2023-04-08T23:43:29;20.75;;;13.10;;
31594;SDS011;18200;48.726;8.892;2023-04-08T23:47:30;20.13;;;12.48;;